Time;durP1;ratioP1;P1;durP2;ratioP2;P2;SDS_P1;SDS_P2;PMS_P1;PMS_P2;Temp;Humidity;BMP_temperature;BMP_pressure;BME280_temperature;BME280_humidity;BME280_pressure;Samples;Min_cycle;Max_cycle;Signal;HPM_P1;HPM_P2
2022/03/08 00:01:52;;;;;;;18.63;9.38;;;;;;;-1.82;100.00;101688.91;6117292;29;20054;-93
2022/03/08 00:04:54;;;;;;;19.92;10.10;;;;;;;-1.82;100.00;101678.75;6114526;29;20117;-93
2022/03/08 00:07:56;;;;;;;19.38;9.73;;;;;;;-1.80;100.00;101671.97;6116230;29;20341;-92
2022/03/08 00:11:00;;;;;;;16.75;8.95;;;;;;;-1.80;100.00;101671.97;6109384;29;20042;-92
2022/03/08 00:14:02;;;;;;;14.90;8.20;;;;;;;-1.82;100.00;101668.59;6116314;29;20051;-92
2022/03/08 00:17:04;;;;;;;15.98;8.95;;;;;;;-1.80;100.00;101671.97;6117274;29;20047;-92
2022/03/08 00:20:08;;;;;;;16.88;8.77;;;;;;;-1.79;100.00;101663.47;6116117;29;20047;-92
2022/03/08 00:23:10;;;;;;;16.25;8.73;;;;;;;-1.78;100.00;101666.03;6111745;29;20036;-92
2022/03/08 00:26:13;;;;;;;16.25;7.70;;;;;;;-1.80;100.00;101664.34;6113436;29;20042;-92
2022/03/08 00:29:14;;;;;;;13.20;7.20;;;;;;;-1.81;100.00;101665.22;6118407;29;20039;-92
2022/03/08 00:32:17;;;;;;;15.23;7.65;;;;;;;-1.85;100.00;101659.31;6114171;29;20056;-92
2022/03/08 00:35:20;;;;;;;14.38;7.25;;;;;;;-1.88;100.00;101654.28;6111598;29;20055;-92
2022/03/08 00:38:22;;;;;;;14.25;7.50;;;;;;;-1.93;100.00;101652.66;6113493;29;20516;-92
2022/03/08 00:41:25;;;;;;;16.63;8.38;;;;;;;-1.97;100.00;101659.44;6111840;29;20067;-92
2022/03/08 00:44:27;;;;;;;13.90;8.25;;;;;;;-1.98;100.00;101655.22;6115969;29;20052;-92
2022/03/08 00:47:41;;;;;;;18.92;8.90;;;;;;;-1.99;100.00;101651.84;6104897;29;20066;-92
2022/03/08 00:50:43;;;;;;;16.33;7.88;;;;;;;-2.02;100.00;101659.47;6108603;29;20489;-92
2022/03/08 00:53:48;;;;;;;13.68;7.47;;;;;;;-2.01;100.00;101640.88;6115988;29;20158;-92
2022/03/08 00:56:50;;;;;;;15.88;8.48;;;;;;;-2.03;100.00;101629.88;6112241;29;20047;-92
2022/03/08 00:59:52;;;;;;;17.45;8.68;;;;;;;-2.07;100.00;101640.91;6110986;29;20051;-92
2022/03/08 01:02:56;;;;;;;19.02;8.85;;;;;;;-2.09;100.00;101634.16;6116056;29;20047;-92
2022/03/08 01:05:58;;;;;;;15.80;8.60;;;;;;;-2.10;100.00;101635.03;6113091;29;20052;-92
2022/03/08 01:09:02;;;;;;;22.30;8.50;;;;;;;-2.13;100.00;101635.91;6115694;29;20050;-92
2022/03/08 01:12:04;;;;;;;15.20;8.18;;;;;;;-2.14;100.00;101634.19;6114471;29;20508;-92
2022/03/08 01:15:08;;;;;;;13.98;7.72;;;;;;;-2.16;100.00;101623.25;6115577;29;20118;-92
2022/03/08 01:18:11;;;;;;;18.60;9.35;;;;;;;-2.17;100.00;101630.00;6114801;29;20047;-92
2022/03/08 01:21:14;;;;;;;16.67;8.80;;;;;;;-2.18;100.00;101630.84;6110006;29;20162;-92
2022/03/08 01:24:17;;;;;;;18.85;8.98;;;;;;;-2.22;100.00;101631.72;6083596;29;20063;-92
2022/03/08 01:27:18;;;;;;;17.50;9.27;;;;;;;-2.20;100.00;101627.50;6114060;29;20524;-92
2022/03/08 01:30:22;;;;;;;21.60;10.07;;;;;;;-2.17;100.00;101631.69;6099797;29;20489;-92
2022/03/08 01:33:24;;;;;;;22.38;10.90;;;;;;;-2.17;100.00;101636.75;6110205;29;20051;-92
2022/03/08 01:36:26;;;;;;;19.65;9.88;;;;;;;-2.17;100.00;101636.75;6114822;29;20055;-92
2022/03/08 01:39:28;;;;;;;16.83;9.43;;;;;;;-2.22;100.00;101635.97;6108963;29;20054;-92
2022/03/08 01:42:31;;;;;;;17.40;8.95;;;;;;;-2.25;100.00;101633.47;6109671;29;20048;-92
2022/03/08 01:45:34;;;;;;;19.15;9.15;;;;;;;-2.29;100.00;101631.78;6116403;29;20044;-92
2022/03/08 01:48:36;;;;;;;19.33;10.02;;;;;;;-2.30;100.00;101637.72;6113599;29;20135;-92
2022/03/08 01:51:39;;;;;;;20.08;9.88;;;;;;;-2.30;100.00;101637.72;6114893;29;20046;-92
2022/03/08 01:54:54;;;;;;;18.02;9.60;;;;;;;-2.31;100.00;101633.50;6127972;29;20383;-92
2022/03/08 01:57:56;;;;;;;16.35;8.88;;;;;;;-2.37;100.00;101624.25;6110980;29;20059;-92
2022/03/08 02:00:58;;;;;;;21.38;10.73;;;;;;;-2.42;100.00;101623.44;6121081;29;20051;-91
2022/03/08 02:04:07;;;;;;;20.80;10.45;;;;;;;-2.42;100.00;101621.75;6112682;29;20043;-92
2022/03/08 02:07:10;;;;;;;24.75;10.43;;;;;;;-2.45;100.00;101624.31;6116528;29;20054;-92
2022/03/08 02:10:12;;;;;;;18.17;9.85;;;;;;;-2.46;100.00;101627.72;6114788;29;20396;-92
2022/03/08 02:13:14;;;;;;;19.25;10.30;;;;;;;-2.46;100.00;101615.03;6117375;29;20051;-91
2022/03/08 02:16:16;;;;;;;18.67;10.70;;;;;;;-2.46;100.00;101627.72;6121763;29;20054;-91
2022/03/08 02:19:18;;;;;;;17.13;9.55;;;;;;;-2.49;100.00;101617.56;6120552;29;20181;-91
2022/03/08 02:22:20;;;;;;;17.15;9.52;;;;;;;-2.52;100.00;101606.63;6118693;29;20048;-92
2022/03/08 02:25:23;;;;;;;23.02;11.00;;;;;;;-2.51;100.00;101609.16;6116604;29;20078;-92
2022/03/08 02:28:25;;;;;;;23.58;11.23;;;;;;;-2.51;100.00;101596.47;6116100;29;20039;-91
2022/03/08 02:31:27;;;;;;;21.15;11.02;;;;;;;-2.50;100.00;101604.91;6118793;29;20040;-92
2022/03/08 02:34:29;;;;;;;24.02;11.32;;;;;;;-2.50;100.00;101604.91;6114577;29;20051;-92
2022/03/08 02:37:53;;;;;;;24.98;11.02;;;;;;;-2.47;100.00;101610.78;6114625;29;20056;-91
2022/03/08 02:40:55;;;;;;;19.35;10.15;;;;;;;-2.47;100.00;101612.50;6122623;29;20104;-91
2022/03/08 02:43:58;;;;;;;19.52;10.85;;;;;;;-2.50;100.00;101610.00;6113860;29;20056;-91
2022/03/08 02:47:02;;;;;;;20.00;10.52;;;;;;;-2.49;100.00;101604.88;6110297;29;20040;-91
2022/03/08 02:50:09;;;;;;;21.35;10.57;;;;;;;-2.55;100.00;101611.72;6116577;29;20523;-92
2022/03/08 02:53:11;;;;;;;21.13;10.57;;;;;;;-2.57;100.00;101605.81;6118600;29;20040;-92
2022/03/08 02:56:13;;;;;;;23.95;11.60;;;;;;;-2.56;100.00;101602.41;6098241;29;20645;-92
2022/03/08 02:59:22;;;;;;;20.45;11.00;;;;;;;-2.56;100.00;101604.94;6119518;29;20043;-91
2022/03/08 03:02:24;;;;;;;22.30;11.18;;;;;;;-2.60;100.00;101601.63;6115381;29;20051;-91
2022/03/08 03:05:27;;;;;;;25.27;11.20;;;;;;;-2.61;100.00;101599.91;6114629;29;20199;-91
2022/03/08 03:08:29;;;;;;;25.25;12.18;;;;;;;-2.61;100.00;101600.78;6112598;29;20123;-91
2022/03/08 03:11:31;;;;;;;20.45;12.32;;;;;;;-2.58;100.00;101592.31;6113659;29;20043;-91
2022/03/08 03:14:33;;;;;;;24.70;11.75;;;;;;;-2.60;100.00;101596.53;6114955;29;20095;-91
2022/03/08 03:17:35;;;;;;;23.90;11.82;;;;;;;-2.62;100.00;101593.19;6114683;29;20047;-91
2022/03/08 03:20:37;;;;;;;19.35;10.10;;;;;;;-2.63;100.00;101592.34;6116963;29;20044;-91
2022/03/08 03:23:40;;;;;;;19.40;9.85;;;;;;;-2.65;100.00;101598.28;6116290;29;20047;-91
2022/03/08 03:26:43;;;;;;;22.23;10.82;;;;;;;-2.74;100.00;101594.09;6110068;29;20043;-91
2022/03/08 03:29:45;;;;;;;21.88;10.93;;;;;;;-2.77;100.00;101596.66;6111199;29;20046;-92
2022/03/08 03:32:47;;;;;;;19.52;11.00;;;;;;;-2.78;100.00;101599.19;6113022;29;20086;-91
2022/03/08 03:35:49;;;;;;;21.25;11.00;;;;;;;-2.87;100.00;101598.41;6111192;29;20040;-91
2022/03/08 03:38:51;;;;;;;20.10;10.00;;;;;;;-2.84;100.00;101593.31;6109314;29;20047;-91
2022/03/08 03:41:53;;;;;;;20.00;10.40;;;;;;;-2.89;100.00;101594.19;6113970;29;20130;-91
2022/03/08 03:44:55;;;;;;;22.05;11.55;;;;;;;-2.92;100.00;101587.44;6118686;29;20182;-91
2022/03/08 03:47:58;;;;;;;24.48;12.35;;;;;;;-2.89;100.00;101594.19;6111432;29;20070;-91
2022/03/08 03:51:00;;;;;;;24.98;13.95;;;;;;;-2.84;100.00;101587.41;6115959;29;20079;-91
2022/03/08 03:54:03;;;;;;;31.50;14.27;;;;;;;-2.76;100.00;101594.94;6114373;29;20048;-91
2022/03/08 03:57:05;;;;;;;26.23;12.90;;;;;;;-2.73;100.00;101590.72;6115011;29;20040;-91
2022/03/08 04:00:09;;;;;;;26.60;13.88;;;;;;;-2.71;100.00;101595.75;6116750;29;20043;-91
2022/03/08 04:03:15;;;;;;;25.45;13.05;;;;;;;-2.74;100.00;101603.38;6115064;29;20047;-91
2022/03/08 04:06:17;;;;;;;25.50;13.43;;;;;;;-2.71;100.00;101605.91;6116390;29;20117;-91
2022/03/08 04:09:19;;;;;;;25.95;13.27;;;;;;;-2.71;100.00;101599.13;6112741;29;20400;-91
2022/03/08 04:12:21;;;;;;;31.10;13.93;;;;;;;-2.71;100.00;101600.84;6110202;29;20133;-91
2022/03/08 04:15:24;;;;;;;27.10;13.40;;;;;;;-2.73;100.00;101600.84;6106212;29;20520;-91
2022/03/08 04:18:26;;;;;;;27.75;13.40;;;;;;;-2.72;100.00;101596.63;6114303;29;20040;-91
2022/03/08 04:21:28;;;;;;;25.95;13.50;;;;;;;-2.74;100.00;101595.78;6113805;29;20059;-91
2022/03/08 04:24:30;;;;;;;23.80;12.38;;;;;;;-2.78;100.00;101594.97;6116857;29;20079;-91
2022/03/08 04:27:32;;;;;;;23.35;12.85;;;;;;;-2.78;100.00;101599.19;6113154;29;20183;-91
2022/03/08 04:30:34;;;;;;;25.10;13.35;;;;;;;-2.79;100.00;101597.50;6116270;29;20404;-91
2022/03/08 04:33:49;;;;;;;29.65;14.35;;;;;;;-2.79;100.00;101595.81;6110476;29;20047;-91
2022/03/08 04:36:51;;;;;;;23.50;13.27;;;;;;;-2.83;100.00;101597.53;6114614;29;20397;-91
2022/03/08 04:39:53;;;;;;;26.20;13.43;;;;;;;-2.79;100.00;101605.13;6111831;29;20062;-91
2022/03/08 04:42:56;;;;;;;27.38;13.30;;;;;;;-2.82;100.00;101598.38;6116633;29;20043;-91
2022/03/08 04:45:58;;;;;;;27.27;13.52;;;;;;;-2.80;100.00;101603.44;6111918;29;20848;-91
2022/03/08 04:49:02;;;;;;;26.77;14.23;;;;;;;-2.82;100.00;101611.03;6113091;29;20036;-91
2022/03/08 04:52:17;;;;;;;30.63;13.95;;;;;;;-2.83;100.00;101612.75;6100759;29;20083;-91
2022/03/08 04:55:20;;;;;;;26.42;13.55;;;;;;;-2.84;100.00;101605.97;6113669;29;20071;-91
2022/03/08 04:58:29;;;;;;;25.67;13.45;;;;;;;-2.84;100.00;101612.75;6094183;29;20059;-91
2022/03/08 05:01:32;;;;;;;25.27;13.23;;;;;;;-2.86;100.00;101605.16;6109411;29;20051;-91
2022/03/08 05:04:34;;;;;;;27.85;12.80;;;;;;;-2.84;100.00;101611.03;6110102;29;20056;-91
2022/03/08 05:07:36;;;;;;;21.67;12.57;;;;;;;-2.84;100.00;101615.28;6112289;29;20511;-91
2022/03/08 05:10:38;;;;;;;24.45;12.23;;;;;;;-2.86;100.00;101612.78;6114819;29;20044;-91
2022/03/08 05:13:41;;;;;;;28.55;13.85;;;;;;;-2.86;100.00;101616.97;6106879;29;20091;-91
2022/03/08 05:16:56;;;;;;;27.10;13.80;;;;;;;-2.86;100.00;101610.22;6114750;29;20050;-91
2022/03/08 05:19:59;;;;;;;24.30;12.25;;;;;;;-2.87;100.00;101605.16;6114540;29;20052;-91
2022/03/08 05:23:01;;;;;;;26.00;13.35;;;;;;;-2.87;100.00;101611.06;6114778;29;20043;-91
2022/03/08 05:26:04;;;;;;;24.00;12.57;;;;;;;-2.87;100.00;101613.59;6117787;29;20400;-91
2022/03/08 05:29:08;;;;;;;29.00;13.80;;;;;;;-2.87;100.00;101607.69;6114414;29;20039;-91
2022/03/08 05:32:10;;;;;;;26.23;13.40;;;;;;;-2.89;100.00;101611.94;6118070;29;20044;-91
2022/03/08 05:35:12;;;;;;;28.55;13.93;;;;;;;-2.91;100.00;101608.56;6116366;29;20518;-91
2022/03/08 05:38:14;;;;;;;25.98;13.27;;;;;;;-2.92;100.00;101617.84;6101518;29;20084;-91
2022/03/08 05:41:18;;;;;;;23.10;12.02;;;;;;;-2.93;100.00;101620.38;6116628;29;20071;-91
2022/03/08 05:44:20;;;;;;;25.13;13.25;;;;;;;-2.92;100.00;101617.00;6117647;29;20047;-91
2022/03/08 05:47:22;;;;;;;25.70;13.05;;;;;;;-2.89;100.00;101619.53;6120599;29;20052;-91
2022/03/08 05:50:24;;;;;;;25.52;12.98;;;;;;;-2.91;100.00;101613.63;6118836;29;20050;-91
2022/03/08 05:53:26;;;;;;;24.40;13.55;;;;;;;-2.87;100.00;101610.22;6116923;29;20040;-91
2022/03/08 05:56:28;;;;;;;26.83;13.57;;;;;;;-2.85;100.00;101611.06;6118155;29;20051;-91
2022/03/08 05:59:30;;;;;;;27.38;13.80;;;;;;;-2.85;100.00;101621.19;6120983;29;20066;-91
2022/03/08 06:02:32;;;;;;;26.90;13.93;;;;;;;-2.86;100.00;101622.91;6108865;29;20824;-91
2022/03/08 06:05:35;;;;;;;23.27;13.43;;;;;;;-2.81;100.00;101625.38;6107484;29;20055;-91
2022/03/08 06:08:37;;;;;;;29.15;14.10;;;;;;;-2.82;100.00;101621.19;6117566;29;20152;-91
2022/03/08 06:11:40;;;;;;;21.45;12.95;;;;;;;-2.78;100.00;101624.53;6119018;29;20505;-91
2022/03/08 06:14:42;;;;;;;27.38;14.07;;;;;;;-2.72;100.00;101632.09;6116583;29;20040;-91
2022/03/08 06:17:44;;;;;;;24.85;13.20;;;;;;;-2.71;100.00;101632.06;6116915;29;20499;-91
2022/03/08 06:20:46;;;;;;;23.92;13.38;;;;;;;-2.69;100.00;101637.13;6116674;29;20648;-91
2022/03/08 06:23:48;;;;;;;27.23;12.73;;;;;;;-2.67;100.00;101637.97;6115394;29;20055;-90
2022/03/08 06:27:04;;;;;;;22.77;12.43;;;;;;;-2.59;100.00;101641.28;6118523;29;20052;-91
2022/03/08 06:30:07;;;;;;;25.38;13.32;;;;;;;-2.54;100.00;101646.34;6127913;29;20766;-91
2022/03/08 06:33:10;;;;;;;23.55;13.38;;;;;;;-2.52;100.00;101653.09;6118850;29;20583;-91
2022/03/08 06:36:12;;;;;;;26.23;12.65;;;;;;;-2.49;100.00;101647.97;6114367;29;20039;-91
2022/03/08 06:39:14;;;;;;;27.77;14.30;;;;;;;-2.45;100.00;101642.06;6119566;29;20433;-91
2022/03/08 06:42:18;;;;;;;23.38;13.15;;;;;;;-2.44;100.00;101643.72;6127103;29;20646;-91
2022/03/08 06:45:20;;;;;;;24.75;13.82;;;;;;;-2.38;100.00;101647.94;6117868;29;20134;-91
2022/03/08 06:48:22;;;;;;;26.92;13.75;;;;;;;-2.36;100.00;101637.75;6118431;29;20048;-91
2022/03/08 06:51:25;;;;;;;22.52;12.68;;;;;;;-2.32;100.00;101637.72;6124959;29;20051;-91
2022/03/08 06:54:27;;;;;;;23.73;12.88;;;;;;;-2.28;100.00;101643.63;6117533;29;20493;-91
2022/03/08 06:57:30;;;;;;;23.80;13.75;;;;;;;-2.25;100.00;101629.22;6120268;29;20047;-92
2022/03/08 07:00:32;;;;;;;25.88;13.15;;;;;;;-2.23;100.00;101626.69;6110805;29;20628;-92
2022/03/08 07:03:33;;;;;;;21.52;12.13;;;;;;;-2.19;100.00;101638.47;6116108;29;20039;-92
2022/03/08 07:06:36;;;;;;;20.25;12.88;;;;;;;-2.11;100.00;101640.94;6119131;29;20115;-92
2022/03/08 07:09:38;;;;;;;26.23;12.98;;;;;;;-2.05;100.00;101635.81;6119231;29;20055;-92
2022/03/08 07:12:40;;;;;;;20.95;12.32;;;;;;;-2.01;100.00;101633.25;6118094;29;20071;-92
2022/03/08 07:15:42;;;;;;;23.35;12.27;;;;;;;-1.98;100.00;101627.31;6115155;29;20047;-92
2022/03/08 07:18:46;;;;;;;24.20;12.88;;;;;;;-1.96;100.00;101628.16;6117849;29;20497;-92
2022/03/08 07:21:48;;;;;;;27.00;12.95;;;;;;;-1.92;100.00;101624.69;6118005;29;20138;-92
2022/03/08 07:24:50;;;;;;;21.98;12.13;;;;;;;-1.85;100.00;101622.97;6117907;29;20198;-92
2022/03/08 07:27:52;;;;;;;24.75;12.13;;;;;;;-1.82;100.00;101633.06;6116100;29;20059;-92
2022/03/08 07:30:54;;;;;;;26.02;13.25;;;;;;;-1.77;100.00;101631.31;6119989;29;20487;-92
2022/03/08 07:33:57;;;;;;;27.08;13.93;;;;;;;-1.73;100.00;101633.81;6118936;29;20046;-92
2022/03/08 07:36:59;;;;;;;25.60;14.23;;;;;;;-1.69;100.00;101639.72;6116586;29;20175;-92
2022/03/08 07:40:04;;;;;;;22.58;13.77;;;;;;;-1.65;100.00;101636.28;6114697;29;20042;-92
2022/03/08 07:43:06;;;;;;;24.75;12.98;;;;;;;-1.60;100.00;101641.31;6116153;29;20046;-92
2022/03/08 07:46:09;;;;;;;20.08;12.43;;;;;;;-1.57;100.00;101636.19;6117516;29;20044;-92
2022/03/08 07:49:12;;;;;;;24.88;13.30;;;;;;;-1.53;100.00;101630.22;6114045;29;20063;-92
2022/03/08 07:52:22;;;;;;;26.02;12.10;;;;;;;-1.41;100.00;101641.97;6098361;29;20513;-92
2022/03/08 07:55:25;;;;;;;20.85;11.18;;;;;;;-1.38;100.00;101637.69;6116447;29;20040;-92
2022/03/08 07:58:28;;;;;;;23.92;13.35;;;;;;;-1.33;100.00;101648.63;6113098;29;20394;-92
2022/03/08 08:01:32;;;;;;;21.23;12.85;;;;;;;-1.26;100.00;101651.94;6098425;29;20390;-92
2022/03/08 08:04:34;;;;;;;22.20;11.90;;;;;;;-1.22;100.00;101647.66;6113777;29;20064;-92
2022/03/08 08:07:36;;;;;;;20.85;12.48;;;;;;;-1.15;100.00;101654.34;6114466;29;20047;-92
2022/03/08 08:10:38;;;;;;;19.73;11.40;;;;;;;-1.08;100.00;101653.41;6097592;29;20056;-92
2022/03/08 08:13:41;;;;;;;20.30;11.15;;;;;;;-1.01;100.00;101659.25;6115927;29;20047;-92
2022/03/08 08:16:43;;;;;;;21.15;12.82;;;;;;;-0.93;100.00;101658.28;6114508;29;20530;-92
2022/03/08 08:19:45;;;;;;;20.50;11.55;;;;;;;-0.83;100.00;101663.25;6114870;29;20040;-92
2022/03/08 08:22:48;;;;;;;19.45;11.90;;;;;;;-0.75;100.00;101667.38;6114006;29;20599;-92
2022/03/08 08:25:50;;;;;;;22.67;12.27;;;;;;;-0.69;100.00;101664.75;6116513;29;20404;-92
2022/03/08 08:28:53;;;;;;;22.30;11.30;;;;;;;-0.64;100.00;101663.88;6117298;29;20499;-92
2022/03/08 08:31:55;;;;;;;20.20;11.60;;;;;;;-0.59;100.00;101657.84;6115684;29;20074;-92
2022/03/08 08:34:57;;;;;;;16.75;11.13;;;;;;;-0.51;100.00;101661.09;6114159;29;20042;-92
2022/03/08 08:37:59;;;;;;;19.38;11.05;;;;;;;-0.43;100.00;101655.91;6115079;29;20050;-92
2022/03/08 08:41:01;;;;;;;22.13;11.27;;;;;;;-0.36;100.00;101660.03;6115569;29;20412;-92
2022/03/08 08:44:04;;;;;;;20.40;11.48;;;;;;;-0.28;100.00;101647.19;6113958;29;20083;-92
2022/03/08 08:47:06;;;;;;;21.27;11.40;;;;;;;-0.22;100.00;101642.84;6115667;29;20556;-93
2022/03/08 08:50:09;;;;;;;19.30;11.35;;;;;;;-0.14;100.00;101641.91;6116130;29;20455;-92
2022/03/08 08:53:11;;;;;;;18.92;10.95;;;;;;;-0.11;100.00;101635.03;6115329;29;20043;-93
2022/03/08 08:56:13;;;;;;;16.83;11.20;;;;;;;-0.05;100.00;101640.03;6115164;29;20047;-92
2022/03/08 08:59:15;;;;;;;18.40;11.43;;;;;;;0.09;100.00;101636.41;6115421;29;20039;-93
2022/03/08 09:02:30;;;;;;;17.67;10.93;;;;;;;0.13;100.00;101628.69;6113813;29;20067;-92
2022/03/08 09:05:33;;;;;;;17.75;10.50;;;;;;;0.20;100.00;101626.88;6115158;29;20138;-92
2022/03/08 09:08:35;;;;;;;17.70;10.32;;;;;;;0.28;100.00;101630.13;6115094;29;20076;-93
2022/03/08 09:11:37;;;;;;;17.30;11.10;;;;;;;0.41;100.00;101616.28;6116147;29;20044;-92
2022/03/08 09:14:39;;;;;;;18.73;10.93;;;;;;;0.54;100.00;101621.97;6115401;29;20079;-93
2022/03/08 09:17:42;;;;;;;18.05;10.43;;;;;;;0.61;100.00;101610.78;6114974;29;20095;-92
2022/03/08 09:20:44;;;;;;;18.08;10.82;;;;;;;0.66;100.00;101608.16;6115680;29;20035;-92
2022/03/08 09:23:46;;;;;;;18.00;10.00;;;;;;;0.71;100.00;101600.44;6114139;29;20051;-93
2022/03/08 09:26:48;;;;;;;20.38;10.05;;;;;;;0.80;100.00;101600.25;6113645;29;20071;-93
2022/03/08 09:29:50;;;;;;;16.85;9.57;;;;;;;0.90;100.00;101600.88;6112935;29;20091;-93
2022/03/08 09:32:53;;;;;;;17.20;9.35;;;;;;;1.00;100.00;101605.75;6111683;29;20040;-93
2022/03/08 09:35:55;;;;;;;14.85;8.88;;;;;;;1.10;100.00;101598.75;6114463;29;20044;-93
2022/03/08 09:38:58;;;;;;;15.30;8.65;;;;;;;1.25;100.00;101595.84;6115418;29;20127;-93
2022/03/08 09:42:01;;;;;;;14.95;8.20;;;;;;;1.33;100.00;101594.81;6115830;29;20043;-93
2022/03/08 09:45:04;;;;;;;12.05;7.22;;;;;;;1.46;100.00;101589.38;6115721;29;20496;-93
2022/03/08 09:48:10;;;;;;;10.90;6.00;;;;;;;1.62;100.00;101591.59;6115242;29;20040;-93
2022/03/08 09:51:16;;;;;;;9.90;6.32;;;;;;;1.76;100.00;101583.56;6116427;29;20548;-93
2022/03/08 09:54:18;;;;;;;8.55;5.47;;;;;;;1.90;100.00;101587.44;6118100;29;20083;-93
2022/03/08 09:57:22;;;;;;;9.82;6.15;;;;;;;2.02;100.00;101588.84;6113883;29;20059;-92
2022/03/08 10:00:25;;;;;;;9.70;6.07;;;;;;;2.22;100.00;101588.31;6115488;29;20051;-93
2022/03/08 10:03:34;;;;;;;15.48;8.10;;;;;;;2.36;100.00;101588.78;6118478;29;20457;-93
2022/03/08 10:06:47;;;;;;;8.77;5.22;;;;;;;2.60;100.00;101591.53;6114380;29;20386;-93
2022/03/08 10:10:06;;;;;;;7.70;4.25;;;;;;;2.78;100.00;101596.13;6119907;29;20048;-93
2022/03/08 10:13:46;;;;;;;7.50;4.82;;;;;;;2.95;100.00;101595.59;6094063;29;20044;-93
2022/03/08 10:16:49;;;;;;;9.20;4.65;;;;;;;3.28;100.00;101592.06;6118208;29;20164;-93
2022/03/08 10:19:51;;;;;;;6.63;3.53;;;;;;;3.45;100.00;101590.66;6118490;29;20039;-93
2022/03/08 10:22:54;;;;;;;7.65;4.15;;;;;;;3.55;100.00;101587.78;6117217;29;20365;-93
2022/03/08 10:26:14;;;;;;;8.18;4.13;;;;;;;3.70;100.00;101584.72;6112850;29;20404;-93
2022/03/08 10:29:23;;;;;;;5.60;3.58;;;;;;;3.91;100.00;101584.91;6116385;29;20149;-93
2022/03/08 10:32:37;;;;;;;4.68;3.10;;;;;;;3.99;100.00;101588.03;6120171;29;20044;-93
2022/03/08 10:35:40;;;;;;;5.40;3.70;;;;;;;4.06;99.76;101582.63;6113225;29;20059;-93
2022/03/08 10:39:20;;;;;;;5.05;3.00;;;;;;;4.14;97.49;101590.06;6122966;29;20115;-94
2022/03/08 10:42:25;;;;;;;4.95;2.58;;;;;;;4.13;94.37;101587.56;6120646;29;20050;-93
2022/03/08 10:45:29;;;;;;;3.75;2.17;;;;;;;4.18;91.55;101593.38;6133188;29;20044;-94
2022/03/08 10:48:36;;;;;;;4.35;2.35;;;;;;;4.20;92.26;101583.88;6114250;29;20047;-94
2022/03/08 10:51:39;;;;;;;3.25;2.33;;;;;;;4.22;89.98;101575.25;6116407;29;20071;-94
2022/03/08 10:54:41;;;;;;;4.00;2.70;;;;;;;4.27;89.95;101575.94;6134842;29;20053;-94
2022/03/08 10:57:53;;;;;;;4.57;2.05;;;;;;;4.36;84.70;101564.50;6130442;29;20083;-94
2022/03/08 11:00:55;;;;;;;2.53;1.50;;;;;;;4.63;85.04;101567.78;6128361;29;20050;-94
2022/03/08 11:03:58;;;;;;;3.72;2.25;;;;;;;4.75;85.20;101563.94;6128363;29;20039;-94
2022/03/08 11:07:01;;;;;;;3.05;2.00;;;;;;;4.79;81.96;101555.22;6110537;29;20145;-94
2022/03/08 11:10:06;;;;;;;3.22;2.30;;;;;;;4.85;80.19;101552.41;6129381;29;20512;-94
2022/03/08 11:13:09;;;;;;;2.28;1.83;;;;;;;4.91;77.72;101559.88;6129182;29;20432;-94
2022/03/08 11:16:11;;;;;;;4.07;1.88;;;;;;;4.98;74.66;101542.50;6128336;29;20214;-94
2022/03/08 11:19:14;;;;;;;2.60;1.98;;;;;;;5.05;76.12;101541.38;6131515;29;20170;-94
2022/03/08 11:22:18;;;;;;;3.30;2.30;;;;;;;5.14;76.95;101543.59;6136593;29;20115;-95
2022/03/08 11:25:22;;;;;;;3.92;2.08;;;;;;;5.28;72.24;101531.94;6143243;29;20049;-94
2022/03/08 11:28:46;;;;;;;3.65;2.60;;;;;;;5.34;72.48;101534.22;6149537;29;20032;-95
2022/03/08 11:31:52;;;;;;;2.88;2.20;;;;;;;5.39;71.45;101527.16;6146652;29;20052;-95
2022/03/08 11:35:02;;;;;;;3.08;2.30;;;;;;;5.44;71.67;101526.97;6151239;29;20052;-95
2022/03/08 11:38:05;;;;;;;4.13;2.35;;;;;;;5.56;71.89;101534.19;6151198;29;20050;-95
2022/03/08 11:41:07;;;;;;;3.03;1.80;;;;;;;5.66;72.14;101527.75;6154900;29;20043;-94
2022/03/08 11:44:33;;;;;;;4.68;1.42;;;;;;;5.69;67.84;101527.66;6168150;23;20059;-95
2022/03/08 11:48:09;;;;;;;2.67;1.40;;;;;;;5.70;66.93;101529.31;6156122;28;20115;-92
2022/03/08 11:51:11;;;;;;;1.80;1.30;;;;;;;5.74;64.55;101523.16;6235308;23;20047;-93
2022/03/08 11:54:22;;;;;;;1.90;1.00;;;;;;;5.83;65.55;101512.47;6690329;23;20047;31
2022/03/08 12:16:42;;;;;;;2.22;1.35;;;;;;;6.82;59.10;101483.16;6214224;23;19931;-92
2022/03/08 12:19:52;;;;;;;3.38;1.70;;;;;;;6.94;57.57;101486.88;6152759;23;20096;-92
2022/03/08 12:23:10;;;;;;;3.17;2.10;;;;;;;6.98;59.31;101477.25;6297905;23;20050;-93
2022/03/08 12:26:21;;;;;;;2.75;1.80;;;;;;;6.93;60.25;101486.94;6130163;29;20044;-92
2022/03/08 12:30:14;;;;;;;2.97;1.23;;;;;;;6.88;57.76;101484.59;6162217;28;20044;-92
2022/03/08 12:33:16;;;;;;;2.25;1.55;;;;;;;6.94;59.52;101475.75;6115011;29;20044;-92
2022/03/08 12:36:27;;;;;;;3.70;1.58;;;;;;;7.02;58.70;101484.75;6104654;29;20484;-92
2022/03/08 12:39:29;;;;;;;5.95;1.80;;;;;;;7.12;55.21;101480.81;6318660;23;20143;31
2022/03/08 12:42:45;;;;;;;1.60;1.40;;;;;;;7.19;56.43;101471.06;6091167;29;20060;-94
2022/03/08 12:45:51;;;;;;;3.00;1.60;;;;;;;7.31;57.70;101472.22;6107675;29;20099;-95
2022/03/08 12:48:54;;;;;;;2.70;1.60;;;;;;;7.36;55.11;101482.28;6132353;29;20047;-95
2022/03/08 12:51:57;;;;;;;3.08;1.30;;;;;;;7.55;54.06;101475.25;6129315;29;20052;-95
2022/03/08 12:55:01;;;;;;;2.30;1.40;;;;;;;7.53;55.91;101479.69;6133757;29;20088;-95
2022/03/08 12:58:10;;;;;;;1.63;1.23;;;;;;;7.52;54.52;101468.53;6122203;29;20064;-95
2022/03/08 13:01:14;;;;;;;1.75;1.30;;;;;;;7.49;54.88;101466.13;6107446;29;20048;-95
2022/03/08 13:04:24;;;;;;;2.10;1.40;;;;;;;7.72;55.69;101458.94;6096585;29;20044;-95
2022/03/08 13:07:28;;;;;;;1.73;1.30;;;;;;;7.86;55.01;101464.22;6118259;29;20052;-95
2022/03/08 13:10:30;;;;;;;3.40;2.00;;;;;;;7.93;54.43;101468.16;6112965;29;20052;-94
2022/03/08 13:13:43;;;;;;;2.35;1.70;;;;;;;7.98;53.94;101458.41;6124153;29;20043;-94
2022/03/08 13:16:45;;;;;;;2.80;1.67;;;;;;;8.09;52.87;101460.41;6110562;29;20036;-94
2022/03/08 13:19:47;;;;;;;1.98;1.60;;;;;;;8.14;53.40;101462.75;6119469;29;20043;-94
2022/03/08 13:22:50;;;;;;;2.97;1.80;;;;;;;8.23;52.68;101454.53;6107370;29;20043;-94
2022/03/08 13:25:59;;;;;;;2.40;1.70;;;;;;;8.42;52.05;101451.78;6121131;29;21421;-94
2022/03/08 13:29:19;;;;;;;2.28;1.60;;;;;;;8.58;51.04;101452.63;6088680;29;20227;-94
2022/03/08 13:32:22;;;;;;;2.67;1.92;;;;;;;8.61;53.69;101444.69;6121719;29;20046;-94
2022/03/08 13:35:24;;;;;;;2.75;1.70;;;;;;;8.75;51.46;101443.09;6104359;29;20052;-94
2022/03/08 13:38:28;;;;;;;4.20;2.28;;;;;;;8.81;51.20;101432.41;6101560;29;20044;-93
2022/03/08 13:41:31;;;;;;;3.92;2.10;;;;;;;8.84;51.38;101440.84;6099936;29;20512;-94
2022/03/08 13:44:33;;;;;;;2.80;2.05;;;;;;;8.98;52.25;101432.28;6086268;29;20131;-94
2022/03/08 13:47:35;;;;;;;3.22;2.55;;;;;;;9.20;50.33;101425.88;6120881;29;20116;-94
2022/03/08 13:50:38;;;;;;;7.78;2.30;;;;;;;9.15;51.06;101430.50;6104799;29;20055;-94
2022/03/08 13:53:39;;;;;;;4.25;2.22;;;;;;;9.12;50.35;101426.34;6104686;29;20052;-94
2022/03/08 13:56:55;;;;;;;4.25;2.10;;;;;;;9.20;50.78;101415.56;6102507;29;20048;-94
2022/03/08 13:59:57;;;;;;;3.47;1.77;;;;;;;9.22;50.40;101424.88;6109489;29;20055;-94
2022/03/08 14:03:01;;;;;;;3.45;1.83;;;;;;;9.34;49.95;101419.88;6117122;29;20039;-94
2022/03/08 14:06:03;;;;;;;2.95;1.88;;;;;;;9.38;50.87;101421.38;6122872;29;20836;-94
2022/03/08 14:09:15;;;;;;;5.35;1.98;;;;;;;9.51;49.83;101413.72;6122956;29;20498;-94
2022/03/08 14:12:17;;;;;;;3.72;1.90;;;;;;;9.48;50.66;101418.13;6104809;29;20737;-94
2022/03/08 14:15:22;;;;;;;3.25;1.80;;;;;;;9.51;51.08;101414.53;6110753;29;20047;-94
2022/03/08 14:18:24;;;;;;;2.63;1.88;;;;;;;9.50;49.86;101418.06;6127188;29;20048;-94
2022/03/08 14:21:27;;;;;;;3.00;2.17;;;;;;;9.46;48.21;101403.66;6093836;29;20056;-94